sensor_id;sensor_type;location;lat;lon;timestamp;temperature;humidity
63219;DHT22;49320;52.512;13.448;2022-08-30T00:02:01;20.20;79.00
63219;DHT22;49320;52.512;13.448;2022-08-30T00:04:28;20.20;78.80
63219;DHT22;49320;52.512;13.448;2022-08-30T00:06:55;20.10;78.90
63219;DHT22;49320;52.512;13.448;2022-08-30T00:09:22;20.10;79.00
63219;DHT22;49320;52.512;13.448;2022-08-30T00:11:49;20.10;79.20
63219;DHT22;49320;52.512;13.448;2022-08-30T00:14:17;20.00;79.20
63219;DHT22;49320;52.512;13.448;2022-08-30T00:16:45;20.10;79.40
63219;DHT22;49320;52.512;13.448;2022-08-30T00:19:12;20.00;79.60
63219;DHT22;49320;52.512;13.448;2022-08-30T00:21:39;20.00;79.70
63219;DHT22;49320;52.512;13.448;2022-08-30T00:24:06;19.90;79.80
63219;DHT22;49320;52.512;13.448;2022-08-30T00:26:33;19.90;80.00
63219;DHT22;49320;52.512;13.448;2022-08-30T00:29:00;19.90;80.10
63219;DHT22;49320;52.512;13.448;2022-08-30T00:31:27;19.90;80.20
63219;DHT22;49320;52.512;13.448;2022-08-30T00:33:54;19.90;80.30
63219;DHT22;49320;52.512;13.448;2022-08-30T00:36:21;19.80;80.40
63219;DHT22;49320;52.512;13.448;2022-08-30T00:38:48;19.90;80.70
63219;DHT22;49320;52.512;13.448;2022-08-30T00:41:14;19.80;80.80
63219;DHT22;49320;52.512;13.448;2022-08-30T00:43:41;19.80;80.90
63219;DHT22;49320;52.512;13.448;2022-08-30T00:46:08;19.90;81.10
63219;DHT22;49320;52.512;13.448;2022-08-30T00:48:42;19.90;81.20
63219;DHT22;49320;52.512;13.448;2022-08-30T00:51:13;19.80;81.90
63219;DHT22;49320;52.512;13.448;2022-08-30T00:53:45;19.80;81.70
63219;DHT22;49320;52.512;13.448;2022-08-30T00:56:16;19.80;81.80
63219;DHT22;49320;52.512;13.448;2022-08-30T00:58:48;19.80;81.80
63219;DHT22;49320;52.512;13.448;2022-08-30T01:01:18;19.80;82.00
63219;DHT22;49320;52.512;13.448;2022-08-30T01:03:46;19.80;82.00
63219;DHT22;49320;52.512;13.448;2022-08-30T01:06:15;19.80;82.10
63219;DHT22;49320;52.512;13.448;2022-08-30T01:08:43;19.80;82.30
63219;DHT22;49320;52.512;13.448;2022-08-30T01:11:12;19.80;82.20
63219;DHT22;49320;52.512;13.448;2022-08-30T01:13:42;19.80;82.30
63219;DHT22;49320;52.512;13.448;2022-08-30T01:16:12;19.80;82.30
63219;DHT22;49320;52.512;13.448;2022-08-30T01:18:40;19.80;82.20
63219;DHT22;49320;52.512;13.448;2022-08-30T01:21:21;19.80;82.30
63219;DHT22;49320;52.512;13.448;2022-08-30T01:23:54;19.80;82.90
63219;DHT22;49320;52.512;13.448;2022-08-30T01:26:26;19.80;82.50
63219;DHT22;49320;52.512;13.448;2022-08-30T01:28:59;19.70;82.40
63219;DHT22;49320;52.512;13.448;2022-08-30T01:31:31;19.70;82.80
63219;DHT22;49320;52.512;13.448;2022-08-30T01:34:06;19.70;82.50
63219;DHT22;49320;52.512;13.448;2022-08-30T01:36:35;19.60;83.00
63219;DHT22;49320;52.512;13.448;2022-08-30T01:39:12;19.70;83.10
63219;DHT22;49320;52.512;13.448;2022-08-30T01:41:41;19.60;83.00
63219;DHT22;49320;52.512;13.448;2022-08-30T01:44:10;19.60;83.00
63219;DHT22;49320;52.512;13.448;2022-08-30T01:46:42;19.60;83.30
63219;DHT22;49320;52.512;13.448;2022-08-30T01:49:15;19.60;83.60
63219;DHT22;49320;52.512;13.448;2022-08-30T01:51:54;19.50;83.70
63219;DHT22;49320;52.512;13.448;2022-08-30T01:54:27;19.50;83.50
63219;DHT22;49320;52.512;13.448;2022-08-30T01:57:08;19.50;83.60
63219;DHT22;49320;52.512;13.448;2022-08-30T01:59:37;19.50;83.90
63219;DHT22;49320;52.512;13.448;2022-08-30T02:02:08;19.50;84.10
63219;DHT22;49320;52.512;13.448;2022-08-30T02:04:35;19.50;84.10
63219;DHT22;49320;52.512;13.448;2022-08-30T02:07:03;19.50;84.10
63219;DHT22;49320;52.512;13.448;2022-08-30T02:09:30;19.40;84.30
63219;DHT22;49320;52.512;13.448;2022-08-30T02:11:57;19.40;84.20
63219;DHT22;49320;52.512;13.448;2022-08-30T02:14:24;19.40;84.30
63219;DHT22;49320;52.512;13.448;2022-08-30T02:16:51;19.40;84.40
63219;DHT22;49320;52.512;13.448;2022-08-30T02:19:18;19.40;84.20
63219;DHT22;49320;52.512;13.448;2022-08-30T02:21:45;19.30;84.20
63219;DHT22;49320;52.512;13.448;2022-08-30T02:24:12;19.30;84.30
63219;DHT22;49320;52.512;13.448;2022-08-30T02:26:39;19.30;84.20
63219;DHT22;49320;52.512;13.448;2022-08-30T02:29:05;19.30;84.40
63219;DHT22;49320;52.512;13.448;2022-08-30T02:31:32;19.20;84.40
63219;DHT22;49320;52.512;13.448;2022-08-30T02:34:01;19.10;84.50
63219;DHT22;49320;52.512;13.448;2022-08-30T02:36:27;19.20;84.60
63219;DHT22;49320;52.512;13.448;2022-08-30T02:38:54;19.20;84.80
63219;DHT22;49320;52.512;13.448;2022-08-30T02:41:22;19.10;84.90
63219;DHT22;49320;52.512;13.448;2022-08-30T02:43:50;19.10;85.00
63219;DHT22;49320;52.512;13.448;2022-08-30T02:46:17;19.10;85.20
63219;DHT22;49320;52.512;13.448;2022-08-30T02:48:44;19.00;85.10
63219;DHT22;49320;52.512;13.448;2022-08-30T02:51:13;19.00;85.30
63219;DHT22;49320;52.512;13.448;2022-08-30T02:53:41;19.00;85.70
63219;DHT22;49320;52.512;13.448;2022-08-30T02:56:10;19.00;85.70
63219;DHT22;49320;52.512;13.448;2022-08-30T02:58:39;19.00;85.80
63219;DHT22;49320;52.512;13.448;2022-08-30T03:01:10;19.00;85.80
63219;DHT22;49320;52.512;13.448;2022-08-30T03:03:40;18.90;86.00
63219;DHT22;49320;52.512;13.448;2022-08-30T03:06:09;18.90;86.00
63219;DHT22;49320;52.512;13.448;2022-08-30T03:08:36;18.90;85.90
63219;DHT22;49320;52.512;13.448;2022-08-30T03:11:03;18.90;86.00
63219;DHT22;49320;52.512;13.448;2022-08-30T03:13:30;18.90;86.00
63219;DHT22;49320;52.512;13.448;2022-08-30T03:15:57;18.90;86.00
63219;DHT22;49320;52.512;13.448;2022-08-30T03:18:24;18.90;86.20
63219;DHT22;49320;52.512;13.448;2022-08-30T03:20:52;18.90;86.30
63219;DHT22;49320;52.512;13.448;2022-08-30T03:23:21;18.80;86.40
63219;DHT22;49320;52.512;13.448;2022-08-30T03:25:49;18.80;86.50
63219;DHT22;49320;52.512;13.448;2022-08-30T03:28:16;18.80;86.60
63219;DHT22;49320;52.512;13.448;2022-08-30T03:30:43;18.80;86.80
63219;DHT22;49320;52.512;13.448;2022-08-30T03:33:10;18.80;86.90
63219;DHT22;49320;52.512;13.448;2022-08-30T03:35:37;18.80;87.00
63219;DHT22;49320;52.512;13.448;2022-08-30T03:38:04;18.70;87.10
63219;DHT22;49320;52.512;13.448;2022-08-30T03:40:32;18.80;87.80
63219;DHT22;49320;52.512;13.448;2022-08-30T03:42:59;18.80;87.20
63219;DHT22;49320;52.512;13.448;2022-08-30T03:45:26;18.70;87.40
63219;DHT22;49320;52.512;13.448;2022-08-30T03:47:53;18.70;87.40
63219;DHT22;49320;52.512;13.448;2022-08-30T03:50:20;18.70;87.50
63219;DHT22;49320;52.512;13.448;2022-08-30T03:52:47;18.70;87.60
63219;DHT22;49320;52.512;13.448;2022-08-30T03:55:14;18.70;87.70
63219;DHT22;49320;52.512;13.448;2022-08-30T03:57:41;18.70;87.80
63219;DHT22;49320;52.512;13.448;2022-08-30T04:00:10;18.80;87.90
63219;DHT22;49320;52.512;13.448;2022-08-30T04:02:39;18.70;88.00
63219;DHT22;49320;52.512;13.448;2022-08-30T04:05:08;18.70;87.80
63219;DHT22;49320;52.512;13.448;2022-08-30T04:07:36;18.70;88.10
63219;DHT22;49320;52.512;13.448;2022-08-30T04:10:07;18.70;87.90
63219;DHT22;49320;52.512;13.448;2022-08-30T04:12:35;18.70;88.40
63219;DHT22;49320;52.512;13.448;2022-08-30T04:15:04;18.70;88.00
63219;DHT22;49320;52.512;13.448;2022-08-30T04:17:32;18.70;88.10
63219;DHT22;49320;52.512;13.448;2022-08-30T04:19:59;18.70;88.00
63219;DHT22;49320;52.512;13.448;2022-08-30T04:22:26;18.60;87.90
63219;DHT22;49320;52.512;13.448;2022-08-30T04:24:53;18.60;88.00
63219;DHT22;49320;52.512;13.448;2022-08-30T04:27:19;18.60;88.10
63219;DHT22;49320;52.512;13.448;2022-08-30T04:29:46;18.50;88.20
63219;DHT22;49320;52.512;13.448;2022-08-30T04:32:14;18.60;88.40
63219;DHT22;49320;52.512;13.448;2022-08-30T04:34:42;18.70;88.60
63219;DHT22;49320;52.512;13.448;2022-08-30T04:37:09;18.60;88.70
63219;DHT22;49320;52.512;13.448;2022-08-30T04:39:36;18.60;88.70
63219;DHT22;49320;52.512;13.448;2022-08-30T04:42:04;18.60;88.80
63219;DHT22;49320;52.512;13.448;2022-08-30T04:44:31;18.70;88.90
63219;DHT22;49320;52.512;13.448;2022-08-30T04:46:59;18.70;88.90
63219;DHT22;49320;52.512;13.448;2022-08-30T04:49:26;18.70;89.00
63219;DHT22;49320;52.512;13.448;2022-08-30T04:51:52;18.70;88.80
63219;DHT22;49320;52.512;13.448;2022-08-30T04:54:19;18.70;88.90
63219;DHT22;49320;52.512;13.448;2022-08-30T04:56:46;18.80;89.20
63219;DHT22;49320;52.512;13.448;2022-08-30T04:59:13;18.70;89.00
63219;DHT22;49320;52.512;13.448;2022-08-30T05:01:40;18.70;89.00
63219;DHT22;49320;52.512;13.448;2022-08-30T05:04:12;18.90;89.00
63219;DHT22;49320;52.512;13.448;2022-08-30T05:06:40;18.90;89.20
63219;DHT22;49320;52.512;13.448;2022-08-30T05:09:07;18.90;89.20
63219;DHT22;49320;52.512;13.448;2022-08-30T05:11:34;18.90;89.30
63219;DHT22;49320;52.512;13.448;2022-08-30T05:14:01;18.90;89.30
63219;DHT22;49320;52.512;13.448;2022-08-30T05:16:28;18.90;89.30
63219;DHT22;49320;52.512;13.448;2022-08-30T05:18:55;19.00;89.30
63219;DHT22;49320;52.512;13.448;2022-08-30T05:21:27;19.10;89.50
63219;DHT22;49320;52.512;13.448;2022-08-30T05:23:57;19.00;89.60
63219;DHT22;49320;52.512;13.448;2022-08-30T05:26:31;19.10;89.70
63219;DHT22;49320;52.512;13.448;2022-08-30T05:29:00;19.10;89.80
63219;DHT22;49320;52.512;13.448;2022-08-30T05:31:32;19.10;90.00
63219;DHT22;49320;52.512;13.448;2022-08-30T05:34:01;19.20;89.70
63219;DHT22;49320;52.512;13.448;2022-08-30T05:36:30;19.30;89.50
63219;DHT22;49320;52.512;13.448;2022-08-30T05:38:59;19.30;89.50
63219;DHT22;49320;52.512;13.448;2022-08-30T05:41:26;19.30;89.30
63219;DHT22;49320;52.512;13.448;2022-08-30T05:43:56;19.30;89.20
63219;DHT22;49320;52.512;13.448;2022-08-30T05:46:25;19.40;89.40
63219;DHT22;49320;52.512;13.448;2022-08-30T05:48:56;19.40;89.30
63219;DHT22;49320;52.512;13.448;2022-08-30T05:51:24;19.50;89.30
63219;DHT22;49320;52.512;13.448;2022-08-30T05:53:55;19.60;89.30
63219;DHT22;49320;52.512;13.448;2022-08-30T05:56:27;19.60;89.20
63219;DHT22;49320;52.512;13.448;2022-08-30T05:58:57;19.70;89.10
63219;DHT22;49320;52.512;13.448;2022-08-30T06:01:27;19.80;88.90
63219;DHT22;49320;52.512;13.448;2022-08-30T06:03:59;19.80;88.90
63219;DHT22;49320;52.512;13.448;2022-08-30T06:06:31;19.90;88.80
63219;DHT22;49320;52.512;13.448;2022-08-30T06:09:02;20.00;88.80
63219;DHT22;49320;52.512;13.448;2022-08-30T06:11:32;20.00;88.70
63219;DHT22;49320;52.512;13.448;2022-08-30T06:14:00;20.10;88.60
63219;DHT22;49320;52.512;13.448;2022-08-30T06:16:28;20.10;88.40
63219;DHT22;49320;52.512;13.448;2022-08-30T06:18:57;20.30;88.40
63219;DHT22;49320;52.512;13.448;2022-08-30T06:21:31;20.30;88.20
63219;DHT22;49320;52.512;13.448;2022-08-30T06:24:00;20.40;88.30
63219;DHT22;49320;52.512;13.448;2022-08-30T06:26:29;20.40;88.00
63219;DHT22;49320;52.512;13.448;2022-08-30T06:28:57;20.60;87.90
63219;DHT22;49320;52.512;13.448;2022-08-30T06:31:25;20.70;87.80
63219;DHT22;49320;52.512;13.448;2022-08-30T06:33:53;20.70;87.60
63219;DHT22;49320;52.512;13.448;2022-08-30T06:36:24;20.70;87.40
63219;DHT22;49320;52.512;13.448;2022-08-30T06:38:53;20.80;87.50
63219;DHT22;49320;52.512;13.448;2022-08-30T06:41:28;20.90;87.30
63219;DHT22;49320;52.512;13.448;2022-08-30T06:43:57;21.00;87.10
63219;DHT22;49320;52.512;13.448;2022-08-30T06:46:32;20.90;86.60
63219;DHT22;49320;52.512;13.448;2022-08-30T06:49:03;21.10;86.50
63219;DHT22;49320;52.512;13.448;2022-08-30T06:51:36;21.20;86.10
63219;DHT22;49320;52.512;13.448;2022-08-30T06:54:06;21.30;85.90
63219;DHT22;49320;52.512;13.448;2022-08-30T06:56:37;21.30;85.60
63219;DHT22;49320;52.512;13.448;2022-08-30T06:59:08;21.40;85.50
63219;DHT22;49320;52.512;13.448;2022-08-30T07:01:35;21.40;85.30
63219;DHT22;49320;52.512;13.448;2022-08-30T07:04:02;21.50;85.20
63219;DHT22;49320;52.512;13.448;2022-08-30T07:06:31;21.50;85.00
63219;DHT22;49320;52.512;13.448;2022-08-30T07:08:58;21.60;85.00
63219;DHT22;49320;52.512;13.448;2022-08-30T07:11:33;21.60;84.80
63219;DHT22;49320;52.512;13.448;2022-08-30T07:14:02;21.70;84.60
63219;DHT22;49320;52.512;13.448;2022-08-30T07:16:31;21.70;84.50
63219;DHT22;49320;52.512;13.448;2022-08-30T07:18:58;21.80;84.50
63219;DHT22;49320;52.512;13.448;2022-08-30T07:21:33;21.80;84.30
63219;DHT22;49320;52.512;13.448;2022-08-30T07:24:02;21.80;83.90
63219;DHT22;49320;52.512;13.448;2022-08-30T07:26:38;21.90;83.90
63219;DHT22;49320;52.512;13.448;2022-08-30T07:29:07;21.90;84.20
63219;DHT22;49320;52.512;13.448;2022-08-30T07:31:35;21.90;83.40
63219;DHT22;49320;52.512;13.448;2022-08-30T07:34:04;22.00;83.10
63219;DHT22;49320;52.512;13.448;2022-08-30T07:36:33;22.10;83.00
63219;DHT22;49320;52.512;13.448;2022-08-30T07:39:01;22.10;82.90
63219;DHT22;49320;52.512;13.448;2022-08-30T07:41:32;22.10;82.70
63219;DHT22;49320;52.512;13.448;2022-08-30T07:44:01;22.10;82.60
63219;DHT22;49320;52.512;13.448;2022-08-30T07:46:28;22.20;82.50
63219;DHT22;49320;52.512;13.448;2022-08-30T07:48:57;22.20;82.20
63219;DHT22;49320;52.512;13.448;2022-08-30T07:51:28;22.20;82.10
63219;DHT22;49320;52.512;13.448;2022-08-30T07:53:55;22.30;81.90
63219;DHT22;49320;52.512;13.448;2022-08-30T07:56:23;22.30;81.60
63219;DHT22;49320;52.512;13.448;2022-08-30T07:58:50;22.30;81.40
63219;DHT22;49320;52.512;13.448;2022-08-30T08:01:19;22.30;81.10
63219;DHT22;49320;52.512;13.448;2022-08-30T08:03:47;22.30;80.90
63219;DHT22;49320;52.512;13.448;2022-08-30T08:06:17;22.40;80.90
63219;DHT22;49320;52.512;13.448;2022-08-30T08:08:46;22.40;80.90
63219;DHT22;49320;52.512;13.448;2022-08-30T08:11:16;22.40;80.80
63219;DHT22;49320;52.512;13.448;2022-08-30T08:13:46;22.50;80.50
63219;DHT22;49320;52.512;13.448;2022-08-30T08:16:22;22.50;80.20
63219;DHT22;49320;52.512;13.448;2022-08-30T08:18:52;22.60;79.90
63219;DHT22;49320;52.512;13.448;2022-08-30T08:21:21;22.70;79.70
63219;DHT22;49320;52.512;13.448;2022-08-30T08:23:49;22.90;79.50
63219;DHT22;49320;52.512;13.448;2022-08-30T08:26:18;22.70;79.10
63219;DHT22;49320;52.512;13.448;2022-08-30T08:28:45;22.70;78.90
63219;DHT22;49320;52.512;13.448;2022-08-30T08:31:19;22.80;78.50
63219;DHT22;49320;52.512;13.448;2022-08-30T08:33:50;22.80;77.90
63219;DHT22;49320;52.512;13.448;2022-08-30T08:36:17;22.90;77.50
63219;DHT22;49320;52.512;13.448;2022-08-30T08:38:44;23.00;77.10
63219;DHT22;49320;52.512;13.448;2022-08-30T08:41:30;23.00;77.00
63219;DHT22;49320;52.512;13.448;2022-08-30T08:47:17;23.20;75.40
63219;DHT22;49320;52.512;13.448;2022-08-30T08:49:55;23.30;75.10
63219;DHT22;49320;52.512;13.448;2022-08-30T08:52:29;23.50;74.90
63219;DHT22;49320;52.512;13.448;2022-08-30T08:55:21;23.60;72.60
63219;DHT22;49320;52.512;13.448;2022-08-30T08:57:50;23.60;74.20
63219;DHT22;49320;52.512;13.448;2022-08-30T09:00:18;23.70;73.50
63219;DHT22;49320;52.512;13.448;2022-08-30T09:02:59;23.80;73.60
63219;DHT22;49320;52.512;13.448;2022-08-30T09:05:37;23.80;72.90
63219;DHT22;49320;52.512;13.448;2022-08-30T09:08:09;23.90;71.70
63219;DHT22;49320;52.512;13.448;2022-08-30T09:10:56;24.00;72.10
63219;DHT22;49320;52.512;13.448;2022-08-30T09:13:28;24.10;71.60
63219;DHT22;49320;52.512;13.448;2022-08-30T09:15:57;24.20;71.40
63219;DHT22;49320;52.512;13.448;2022-08-30T09:18:43;24.30;71.10
63219;DHT22;49320;52.512;13.448;2022-08-30T09:21:23;24.30;69.00
63219;DHT22;49320;52.512;13.448;2022-08-30T09:23:59;24.30;69.30
63219;DHT22;49320;52.512;13.448;2022-08-30T09:26:35;24.40;69.20
63219;DHT22;49320;52.512;13.448;2022-08-30T09:29:04;24.40;68.40
63219;DHT22;49320;52.512;13.448;2022-08-30T09:31:48;24.30;68.00
63219;DHT22;49320;52.512;13.448;2022-08-30T09:34:42;24.20;67.80
63219;DHT22;49320;52.512;13.448;2022-08-30T09:37:24;24.10;68.30
63219;DHT22;49320;52.512;13.448;2022-08-30T09:39:56;24.10;67.50
63219;DHT22;49320;52.512;13.448;2022-08-30T09:42:27;24.00;68.40
63219;DHT22;49320;52.512;13.448;2022-08-30T09:44:57;23.90;68.50
63219;DHT22;49320;52.512;13.448;2022-08-30T09:47:41;23.70;68.80
63219;DHT22;49320;52.512;13.448;2022-08-30T09:50:17;23.80;68.80
63219;DHT22;49320;52.512;13.448;2022-08-30T09:53:02;23.80;68.90
63219;DHT22;49320;52.512;13.448;2022-08-30T10:01:58;23.80;68.40
63219;DHT22;49320;52.512;13.448;2022-08-30T10:04:52;23.80;68.70
63219;DHT22;49320;52.512;13.448;2022-08-30T10:10:58;24.00;68.20
63219;DHT22;49320;52.512;13.448;2022-08-30T10:13:54;24.00;68.10
63219;DHT22;49320;52.512;13.448;2022-08-30T10:16:39;24.10;67.20
63219;DHT22;49320;52.512;13.448;2022-08-30T10:22:15;24.20;66.80
63219;DHT22;49320;52.512;13.448;2022-08-30T10:24:54;24.30;66.70
63219;DHT22;49320;52.512;13.448;2022-08-30T10:27:45;24.30;67.00
63219;DHT22;49320;52.512;13.448;2022-08-30T10:30:18;24.40;66.00
63219;DHT22;49320;52.512;13.448;2022-08-30T10:35:24;24.50;66.90
63219;DHT22;49320;52.512;13.448;2022-08-30T10:38:09;24.70;65.70
63219;DHT22;49320;52.512;13.448;2022-08-30T10:40:48;24.70;65.60
63219;DHT22;49320;52.512;13.448;2022-08-30T10:46:59;24.90;64.40
63219;DHT22;49320;52.512;13.448;2022-08-30T10:49:37;25.00;64.10
63219;DHT22;49320;52.512;13.448;2022-08-30T10:52:24;25.10;63.90
63219;DHT22;49320;52.512;13.448;2022-08-30T10:55:09;25.10;61.70
63219;DHT22;49320;52.512;13.448;2022-08-30T10:57:40;25.20;62.30
63219;DHT22;49320;52.512;13.448;2022-08-30T11:00:24;25.20;62.70
63219;DHT22;49320;52.512;13.448;2022-08-30T11:06:05;25.40;61.70
63219;DHT22;49320;52.512;13.448;2022-08-30T11:09:18;25.40;61.60
63219;DHT22;49320;52.512;13.448;2022-08-30T11:14:53;25.60;60.30
63219;DHT22;49320;52.512;13.448;2022-08-30T11:17:29;25.60;61.30
63219;DHT22;49320;52.512;13.448;2022-08-30T11:20:02;25.70;60.70
63219;DHT22;49320;52.512;13.448;2022-08-30T11:22:36;25.70;60.60
63219;DHT22;49320;52.512;13.448;2022-08-30T11:25:10;25.80;59.90
63219;DHT22;49320;52.512;13.448;2022-08-30T11:28:04;25.90;59.90
63219;DHT22;49320;52.512;13.448;2022-08-30T11:35:43;26.00;58.90
63219;DHT22;49320;52.512;13.448;2022-08-30T11:55:31;25.90;58.00
63219;DHT22;49320;52.512;13.448;2022-08-30T11:58:33;26.00;57.30
63219;DHT22;49320;52.512;13.448;2022-08-30T12:11:55;26.00;58.00
63219;DHT22;49320;52.512;13.448;2022-08-30T12:14:41;25.90;58.10
63219;DHT22;49320;52.512;13.448;2022-08-30T12:17:20;25.90;58.00
63219;DHT22;49320;52.512;13.448;2022-08-30T12:20:20;25.80;58.20
63219;DHT22;49320;52.512;13.448;2022-08-30T12:22:53;25.90;58.10
63219;DHT22;49320;52.512;13.448;2022-08-30T12:25:26;25.70;58.50
63219;DHT22;49320;52.512;13.448;2022-08-30T12:28:15;25.70;58.40
63219;DHT22;49320;52.512;13.448;2022-08-30T12:30:49;25.90;57.90
63219;DHT22;49320;52.512;13.448;2022-08-30T12:33:26;25.90;58.60
63219;DHT22;49320;52.512;13.448;2022-08-30T12:39:14;26.10;58.00
63219;DHT22;49320;52.512;13.448;2022-08-30T12:41:44;26.10;57.20
63219;DHT22;49320;52.512;13.448;2022-08-30T12:44:15;26.10;58.20
63219;DHT22;49320;52.512;13.448;2022-08-30T12:46:47;26.20;57.80
63219;DHT22;49320;52.512;13.448;2022-08-30T12:49:25;26.30;57.70
63219;DHT22;49320;52.512;13.448;2022-08-30T12:51:54;26.40;57.50
63219;DHT22;49320;52.512;13.448;2022-08-30T12:54:28;26.40;57.10
63219;DHT22;49320;52.512;13.448;2022-08-30T12:56:59;26.40;55.80
63219;DHT22;49320;52.512;13.448;2022-08-30T12:59:51;26.50;56.30
63219;DHT22;49320;52.512;13.448;2022-08-30T13:02:41;26.50;56.10
63219;DHT22;49320;52.512;13.448;2022-08-30T13:08:29;26.60;55.50
63219;DHT22;49320;52.512;13.448;2022-08-30T13:11:08;26.70;55.50
63219;DHT22;49320;52.512;13.448;2022-08-30T13:14:18;26.70;55.80
63219;DHT22;49320;52.512;13.448;2022-08-30T13:16:45;26.70;56.10
63219;DHT22;49320;52.512;13.448;2022-08-30T13:19:37;26.70;55.90
63219;DHT22;49320;52.512;13.448;2022-08-30T13:23:09;26.70;54.80
63219;DHT22;49320;52.512;13.448;2022-08-30T13:25:28;26.70;54.60
63219;DHT22;49320;52.512;13.448;2022-08-30T13:27:59;26.60;55.40
63219;DHT22;49320;52.512;13.448;2022-08-30T13:30:28;26.60;55.20
63219;DHT22;49320;52.512;13.448;2022-08-30T13:32:55;26.60;55.30
63219;DHT22;49320;52.512;13.448;2022-08-30T13:35:22;26.60;55.50
63219;DHT22;49320;52.512;13.448;2022-08-30T13:37:49;26.60;55.60
63219;DHT22;49320;52.512;13.448;2022-08-30T13:40:19;26.60;55.60
63219;DHT22;49320;52.512;13.448;2022-08-30T13:42:47;26.60;55.50
63219;DHT22;49320;52.512;13.448;2022-08-30T13:45:17;26.60;55.70
63219;DHT22;49320;52.512;13.448;2022-08-30T13:48:05;26.50;55.60
63219;DHT22;49320;52.512;13.448;2022-08-30T13:50:32;26.40;55.80
63219;DHT22;49320;52.512;13.448;2022-08-30T13:52:59;26.40;55.70
63219;DHT22;49320;52.512;13.448;2022-08-30T13:55:27;26.30;55.80
63219;DHT22;49320;52.512;13.448;2022-08-30T13:57:54;26.30;56.00
63219;DHT22;49320;52.512;13.448;2022-08-30T14:00:24;26.20;55.90
63219;DHT22;49320;52.512;13.448;2022-08-30T14:02:51;26.10;56.00
63219;DHT22;49320;52.512;13.448;2022-08-30T14:05:28;26.00;56.00
63219;DHT22;49320;52.512;13.448;2022-08-30T14:08:23;25.90;56.00
63219;DHT22;49320;52.512;13.448;2022-08-30T14:11:15;25.80;56.10
63219;DHT22;49320;52.512;13.448;2022-08-30T14:13:47;25.60;56.10
63219;DHT22;49320;52.512;13.448;2022-08-30T14:16:36;25.60;56.50
63219;DHT22;49320;52.512;13.448;2022-08-30T14:19:07;25.60;56.70
63219;DHT22;49320;52.512;13.448;2022-08-30T14:21:35;25.40;56.80
63219;DHT22;49320;52.512;13.448;2022-08-30T14:24:02;25.40;57.00
63219;DHT22;49320;52.512;13.448;2022-08-30T14:26:35;25.30;57.20
63219;DHT22;49320;52.512;13.448;2022-08-30T14:29:14;25.30;57.40
63219;DHT22;49320;52.512;13.448;2022-08-30T14:31:43;25.20;57.50
63219;DHT22;49320;52.512;13.448;2022-08-30T14:34:12;25.20;57.60
63219;DHT22;49320;52.512;13.448;2022-08-30T14:36:41;25.20;57.80
63219;DHT22;49320;52.512;13.448;2022-08-30T14:39:12;25.20;57.80
63219;DHT22;49320;52.512;13.448;2022-08-30T14:41:44;25.10;57.70
63219;DHT22;49320;52.512;13.448;2022-08-30T14:44:14;25.10;57.70
63219;DHT22;49320;52.512;13.448;2022-08-30T14:46:43;25.10;57.80
63219;DHT22;49320;52.512;13.448;2022-08-30T14:49:11;25.10;57.90
63219;DHT22;49320;52.512;13.448;2022-08-30T14:51:39;25.00;58.00
63219;DHT22;49320;52.512;13.448;2022-08-30T14:54:07;25.00;58.00
63219;DHT22;49320;52.512;13.448;2022-08-30T14:56:36;25.00;58.00
63219;DHT22;49320;52.512;13.448;2022-08-30T14:59:04;25.00;57.90
63219;DHT22;49320;52.512;13.448;2022-08-30T15:01:33;25.00;57.90
63219;DHT22;49320;52.512;13.448;2022-08-30T15:04:03;24.90;57.80
63219;DHT22;49320;52.512;13.448;2022-08-30T15:06:34;25.00;58.00
63219;DHT22;49320;52.512;13.448;2022-08-30T15:09:04;24.90;57.90
63219;DHT22;49320;52.512;13.448;2022-08-30T15:11:32;24.90;57.90
63219;DHT22;49320;52.512;13.448;2022-08-30T15:14:00;24.90;57.90
63219;DHT22;49320;52.512;13.448;2022-08-30T15:16:30;24.80;57.80
63219;DHT22;49320;52.512;13.448;2022-08-30T15:19:01;24.80;57.90
63219;DHT22;49320;52.512;13.448;2022-08-30T15:21:34;24.80;58.00
63219;DHT22;49320;52.512;13.448;2022-08-30T15:24:04;24.80;57.90
63219;DHT22;49320;52.512;13.448;2022-08-30T15:26:35;24.70;57.90
63219;DHT22;49320;52.512;13.448;2022-08-30T15:29:07;24.80;57.90
63219;DHT22;49320;52.512;13.448;2022-08-30T15:31:34;24.70;57.80
63219;DHT22;49320;52.512;13.448;2022-08-30T15:34:01;24.70;57.90
63219;DHT22;49320;52.512;13.448;2022-08-30T15:36:28;24.70;57.80
63219;DHT22;49320;52.512;13.448;2022-08-30T15:38:56;24.70;57.80
63219;DHT22;49320;52.512;13.448;2022-08-30T15:41:25;24.70;57.90
63219;DHT22;49320;52.512;13.448;2022-08-30T15:43:55;24.70;57.90
63219;DHT22;49320;52.512;13.448;2022-08-30T15:46:29;24.70;58.10
63219;DHT22;49320;52.512;13.448;2022-08-30T15:49:03;24.70;58.20
63219;DHT22;49320;52.512;13.448;2022-08-30T15:51:33;24.80;58.30
63219;DHT22;49320;52.512;13.448;2022-08-30T15:54:08;24.80;58.30
63219;DHT22;49320;52.512;13.448;2022-08-30T15:56:38;24.80;58.30
63219;DHT22;49320;52.512;13.448;2022-08-30T15:59:07;24.80;58.20
63219;DHT22;49320;52.512;13.448;2022-08-30T16:01:36;24.80;58.20
63219;DHT22;49320;52.512;13.448;2022-08-30T16:04:04;24.90;58.20
63219;DHT22;49320;52.512;13.448;2022-08-30T16:06:33;24.80;58.10
63219;DHT22;49320;52.512;13.448;2022-08-30T16:09:04;24.80;58.10
63219;DHT22;49320;52.512;13.448;2022-08-30T16:11:32;24.80;58.00
63219;DHT22;49320;52.512;13.448;2022-08-30T16:14:00;24.80;58.00
63219;DHT22;49320;52.512;13.448;2022-08-30T16:16:28;24.80;58.00
63219;DHT22;49320;52.512;13.448;2022-08-30T16:18:56;24.80;57.90
63219;DHT22;49320;52.512;13.448;2022-08-30T16:21:27;24.80;57.90
63219;DHT22;49320;52.512;13.448;2022-08-30T16:23:58;24.80;57.80
63219;DHT22;49320;52.512;13.448;2022-08-30T16:26:27;24.80;57.70
63219;DHT22;49320;52.512;13.448;2022-08-30T16:28:56;24.70;57.70
63219;DHT22;49320;52.512;13.448;2022-08-30T16:31:25;24.80;57.70
63219;DHT22;49320;52.512;13.448;2022-08-30T16:33:55;24.70;57.70
63219;DHT22;49320;52.512;13.448;2022-08-30T16:36:29;24.70;57.70
63219;DHT22;49320;52.512;13.448;2022-08-30T16:38:58;24.70;57.70
63219;DHT22;49320;52.512;13.448;2022-08-30T16:41:26;24.70;57.70
63219;DHT22;49320;52.512;13.448;2022-08-30T16:43:54;24.60;57.50
63219;DHT22;49320;52.512;13.448;2022-08-30T16:46:23;24.70;57.60
63219;DHT22;49320;52.512;13.448;2022-08-30T16:48:55;24.60;57.50
63219;DHT22;49320;52.512;13.448;2022-08-30T16:51:25;24.60;57.40